sensor_id;sensor_type;location;lat;lon;timestamp;P1;durP1;ratioP1;P2;durP2;ratioP2
10100;SDS011;5090;51.258;4.436;2023-04-15T00:00:10;6.53;;;3.43;;
10100;SDS011;5090;51.258;4.436;2023-04-15T00:02:39;8.23;;;3.17;;
10100;SDS011;5090;51.258;4.436;2023-04-15T00:05:07;7.40;;;3.97;;
10100;SDS011;5090;51.258;4.436;2023-04-15T00:07:36;5.67;;;3.43;;
10100;SDS011;5090;51.258;4.436;2023-04-15T00:10:04;7.07;;;3.80;;
10100;SDS011;5090;51.258;4.436;2023-04-15T00:12:33;7.50;;;3.87;;
10100;SDS011;5090;51.258;4.436;2023-04-15T00:15:01;6.50;;;4.17;;
10100;SDS011;5090;51.258;4.436;2023-04-15T00:17:29;8.13;;;4.10;;
10100;SDS011;5090;51.258;4.436;2023-04-15T00:19:57;5.07;;;3.73;;
10100;SDS011;5090;51.258;4.436;2023-04-15T00:22:26;7.07;;;4.23;;
10100;SDS011;5090;51.258;4.436;2023-04-15T00:24:54;5.60;;;3.43;;
10100;SDS011;5090;51.258;4.436;2023-04-15T00:27:22;10.63;;;4.67;;
10100;SDS011;5090;51.258;4.436;2023-04-15T00:29:50;7.67;;;3.77;;
10100;SDS011;5090;51.258;4.436;2023-04-15T00:32:19;8.83;;;4.10;;
10100;SDS011;5090;51.258;4.436;2023-04-15T00:34:47;10.20;;;4.20;;
10100;SDS011;5090;51.258;4.436;2023-04-15T00:37:15;6.60;;;3.90;;
10100;SDS011;5090;51.258;4.436;2023-04-15T00:39:43;12.10;;;4.20;;
10100;SDS011;5090;51.258;4.436;2023-04-15T00:42:12;6.77;;;4.37;;
10100;SDS011;5090;51.258;4.436;2023-04-15T00:44:39;7.93;;;4.10;;
10100;SDS011;5090;51.258;4.436;2023-04-15T00:47:08;9.67;;;4.57;;
10100;SDS011;5090;51.258;4.436;2023-04-15T00:49:36;7.30;;;3.70;;
10100;SDS011;5090;51.258;4.436;2023-04-15T00:52:04;7.20;;;3.87;;
10100;SDS011;5090;51.258;4.436;2023-04-15T00:54:32;5.53;;;3.40;;
10100;SDS011;5090;51.258;4.436;2023-04-15T00:57:01;8.03;;;3.90;;
10100;SDS011;5090;51.258;4.436;2023-04-15T00:59:29;7.87;;;3.93;;
10100;SDS011;5090;51.258;4.436;2023-04-15T01:01:57;6.50;;;3.67;;
10100;SDS011;5090;51.258;4.436;2023-04-15T01:04:25;5.43;;;3.70;;
10100;SDS011;5090;51.258;4.436;2023-04-15T01:06:53;7.57;;;3.20;;
10100;SDS011;5090;51.258;4.436;2023-04-15T01:09:22;9.03;;;4.47;;
10100;SDS011;5090;51.258;4.436;2023-04-15T01:11:51;6.73;;;3.13;;
10100;SDS011;5090;51.258;4.436;2023-04-15T01:14:19;9.37;;;3.50;;
10100;SDS011;5090;51.258;4.436;2023-04-15T01:16:47;5.53;;;2.87;;
10100;SDS011;5090;51.258;4.436;2023-04-15T01:19:16;6.97;;;3.40;;
10100;SDS011;5090;51.258;4.436;2023-04-15T01:21:44;6.67;;;3.33;;
10100;SDS011;5090;51.258;4.436;2023-04-15T01:24:12;8.10;;;3.53;;
10100;SDS011;5090;51.258;4.436;2023-04-15T01:26:40;5.63;;;3.70;;
10100;SDS011;5090;51.258;4.436;2023-04-15T01:29:09;12.07;;;4.17;;
10100;SDS011;5090;51.258;4.436;2023-04-15T01:31:37;8.30;;;3.97;;
10100;SDS011;5090;51.258;4.436;2023-04-15T01:34:05;7.60;;;4.00;;
10100;SDS011;5090;51.258;4.436;2023-04-15T01:36:33;5.43;;;3.50;;
10100;SDS011;5090;51.258;4.436;2023-04-15T01:39:01;6.57;;;3.10;;
10100;SDS011;5090;51.258;4.436;2023-04-15T01:41:30;4.33;;;2.93;;
10100;SDS011;5090;51.258;4.436;2023-04-15T01:43:58;8.27;;;3.57;;
10100;SDS011;5090;51.258;4.436;2023-04-15T01:46:26;6.43;;;3.80;;
10100;SDS011;5090;51.258;4.436;2023-04-15T01:48:54;6.23;;;3.43;;
10100;SDS011;5090;51.258;4.436;2023-04-15T01:51:23;9.60;;;3.33;;
10100;SDS011;5090;51.258;4.436;2023-04-15T01:53:55;6.63;;;3.53;;
10100;SDS011;5090;51.258;4.436;2023-04-15T01:56:23;4.63;;;2.90;;
10100;SDS011;5090;51.258;4.436;2023-04-15T01:58:51;7.67;;;3.80;;
10100;SDS011;5090;51.258;4.436;2023-04-15T02:01:19;4.97;;;2.90;;
10100;SDS011;5090;51.258;4.436;2023-04-15T02:03:47;6.27;;;3.30;;
10100;SDS011;5090;51.258;4.436;2023-04-15T02:06:16;5.27;;;3.03;;
10100;SDS011;5090;51.258;4.436;2023-04-15T02:08:44;8.63;;;3.70;;
10100;SDS011;5090;51.258;4.436;2023-04-15T02:11:12;6.47;;;3.33;;
10100;SDS011;5090;51.258;4.436;2023-04-15T02:13:40;7.73;;;3.30;;
10100;SDS011;5090;51.258;4.436;2023-04-15T02:16:17;7.30;;;3.53;;
10100;SDS011;5090;51.258;4.436;2023-04-15T02:18:45;5.00;;;3.13;;
10100;SDS011;5090;51.258;4.436;2023-04-15T02:21:13;9.03;;;3.67;;
10100;SDS011;5090;51.258;4.436;2023-04-15T02:23:41;7.40;;;3.77;;
10100;SDS011;5090;51.258;4.436;2023-04-15T02:26:10;5.90;;;2.93;;
10100;SDS011;5090;51.258;4.436;2023-04-15T02:28:42;7.20;;;3.30;;
10100;SDS011;5090;51.258;4.436;2023-04-15T02:31:10;5.40;;;3.27;;
10100;SDS011;5090;51.258;4.436;2023-04-15T02:33:39;10.07;;;3.43;;
10100;SDS011;5090;51.258;4.436;2023-04-15T02:36:07;4.43;;;3.27;;
10100;SDS011;5090;51.258;4.436;2023-04-15T02:38:35;5.80;;;3.30;;
10100;SDS011;5090;51.258;4.436;2023-04-15T02:41:03;7.37;;;3.53;;
10100;SDS011;5090;51.258;4.436;2023-04-15T02:43:32;6.53;;;3.80;;
10100;SDS011;5090;51.258;4.436;2023-04-15T02:46:00;8.10;;;3.43;;
10100;SDS011;5090;51.258;4.436;2023-04-15T02:48:28;10.07;;;4.40;;
10100;SDS011;5090;51.258;4.436;2023-04-15T02:53:30;6.83;;;3.80;;
10100;SDS011;5090;51.258;4.436;2023-04-15T02:55:59;5.37;;;3.90;;
10100;SDS011;5090;51.258;4.436;2023-04-15T02:58:27;6.30;;;3.80;;
10100;SDS011;5090;51.258;4.436;2023-04-15T03:00:55;9.10;;;4.07;;
10100;SDS011;5090;51.258;4.436;2023-04-15T03:03:24;8.47;;;3.97;;
10100;SDS011;5090;51.258;4.436;2023-04-15T03:05:52;7.40;;;4.10;;
10100;SDS011;5090;51.258;4.436;2023-04-15T03:08:20;7.00;;;4.30;;
10100;SDS011;5090;51.258;4.436;2023-04-15T03:10:48;11.60;;;4.70;;
10100;SDS011;5090;51.258;4.436;2023-04-15T03:13:17;8.40;;;4.40;;
10100;SDS011;5090;51.258;4.436;2023-04-15T03:15:45;10.30;;;4.80;;
10100;SDS011;5090;51.258;4.436;2023-04-15T03:18:14;4.00;;;3.53;;
10100;SDS011;5090;51.258;4.436;2023-04-15T03:20:43;9.17;;;4.73;;
10100;SDS011;5090;51.258;4.436;2023-04-15T03:23:11;8.47;;;4.43;;
10100;SDS011;5090;51.258;4.436;2023-04-15T03:25:39;9.07;;;4.73;;
10100;SDS011;5090;51.258;4.436;2023-04-15T03:28:07;6.33;;;4.53;;
10100;SDS011;5090;51.258;4.436;2023-04-15T03:30:36;6.33;;;4.40;;
10100;SDS011;5090;51.258;4.436;2023-04-15T03:33:04;11.53;;;5.00;;
10100;SDS011;5090;51.258;4.436;2023-04-15T03:35:32;6.00;;;4.67;;
10100;SDS011;5090;51.258;4.436;2023-04-15T03:38:00;7.50;;;4.80;;
10100;SDS011;5090;51.258;4.436;2023-04-15T03:40:28;7.70;;;4.70;;
10100;SDS011;5090;51.258;4.436;2023-04-15T03:42:57;10.20;;;5.03;;
10100;SDS011;5090;51.258;4.436;2023-04-15T03:45:25;7.30;;;5.20;;
10100;SDS011;5090;51.258;4.436;2023-04-15T03:47:53;11.77;;;5.50;;
10100;SDS011;5090;51.258;4.436;2023-04-15T03:50:21;7.13;;;5.33;;
10100;SDS011;5090;51.258;4.436;2023-04-15T03:52:49;10.13;;;5.47;;
10100;SDS011;5090;51.258;4.436;2023-04-15T03:55:18;9.03;;;5.50;;
10100;SDS011;5090;51.258;4.436;2023-04-15T03:57:46;8.77;;;5.53;;
10100;SDS011;5090;51.258;4.436;2023-04-15T04:00:14;10.20;;;5.47;;
10100;SDS011;5090;51.258;4.436;2023-04-15T04:02:42;10.07;;;5.80;;
10100;SDS011;5090;51.258;4.436;2023-04-15T04:05:11;11.17;;;5.77;;
10100;SDS011;5090;51.258;4.436;2023-04-15T04:07:39;13.30;;;5.60;;
10100;SDS011;5090;51.258;4.436;2023-04-15T04:10:07;8.83;;;5.87;;
10100;SDS011;5090;51.258;4.436;2023-04-15T04:12:35;8.67;;;5.77;;
10100;SDS011;5090;51.258;4.436;2023-04-15T04:15:04;7.23;;;5.00;;
10100;SDS011;5090;51.258;4.436;2023-04-15T04:17:32;6.87;;;5.43;;
10100;SDS011;5090;51.258;4.436;2023-04-15T04:20:00;12.90;;;6.07;;
10100;SDS011;5090;51.258;4.436;2023-04-15T04:22:29;11.20;;;5.93;;
10100;SDS011;5090;51.258;4.436;2023-04-15T04:24:57;8.93;;;5.80;;
10100;SDS011;5090;51.258;4.436;2023-04-15T04:27:25;8.13;;;5.50;;
10100;SDS011;5090;51.258;4.436;2023-04-15T04:29:53;8.93;;;5.37;;
10100;SDS011;5090;51.258;4.436;2023-04-15T04:32:21;6.87;;;5.47;;
10100;SDS011;5090;51.258;4.436;2023-04-15T04:34:50;10.10;;;5.70;;
10100;SDS011;5090;51.258;4.436;2023-04-15T04:37:18;10.20;;;5.33;;
10100;SDS011;5090;51.258;4.436;2023-04-15T04:39:46;11.77;;;5.90;;
10100;SDS011;5090;51.258;4.436;2023-04-15T04:42:14;8.30;;;6.03;;
10100;SDS011;5090;51.258;4.436;2023-04-15T04:44:42;11.63;;;6.13;;
10100;SDS011;5090;51.258;4.436;2023-04-15T04:47:11;12.97;;;6.23;;
10100;SDS011;5090;51.258;4.436;2023-04-15T04:49:39;8.73;;;6.10;;
10100;SDS011;5090;51.258;4.436;2023-04-15T04:52:07;9.90;;;6.20;;
10100;SDS011;5090;51.258;4.436;2023-04-15T04:54:35;9.77;;;6.23;;
10100;SDS011;5090;51.258;4.436;2023-04-15T04:57:04;11.30;;;6.30;;
10100;SDS011;5090;51.258;4.436;2023-04-15T04:59:32;11.50;;;6.77;;
10100;SDS011;5090;51.258;4.436;2023-04-15T05:02:00;9.33;;;6.67;;
10100;SDS011;5090;51.258;4.436;2023-04-15T05:04:28;9.87;;;6.43;;
10100;SDS011;5090;51.258;4.436;2023-04-15T05:06:57;10.17;;;5.73;;
10100;SDS011;5090;51.258;4.436;2023-04-15T05:09:25;9.80;;;6.83;;
10100;SDS011;5090;51.258;4.436;2023-04-15T05:11:53;12.37;;;7.07;;
10100;SDS011;5090;51.258;4.436;2023-04-15T05:14:21;11.53;;;7.57;;
10100;SDS011;5090;51.258;4.436;2023-04-15T05:16:49;11.27;;;6.37;;
10100;SDS011;5090;51.258;4.436;2023-04-15T05:19:17;12.83;;;7.07;;
10100;SDS011;5090;51.258;4.436;2023-04-15T05:21:46;10.63;;;7.10;;
10100;SDS011;5090;51.258;4.436;2023-04-15T05:24:14;17.77;;;7.67;;
10100;SDS011;5090;51.258;4.436;2023-04-15T05:26:42;10.70;;;7.47;;
10100;SDS011;5090;51.258;4.436;2023-04-15T05:29:10;14.93;;;8.60;;
10100;SDS011;5090;51.258;4.436;2023-04-15T05:31:39;13.13;;;8.20;;
10100;SDS011;5090;51.258;4.436;2023-04-15T05:34:07;13.57;;;7.60;;
10100;SDS011;5090;51.258;4.436;2023-04-15T05:36:35;12.13;;;7.47;;
10100;SDS011;5090;51.258;4.436;2023-04-15T05:39:03;15.90;;;8.93;;
10100;SDS011;5090;51.258;4.436;2023-04-15T05:41:31;16.20;;;8.67;;
10100;SDS011;5090;51.258;4.436;2023-04-15T05:44:00;14.43;;;8.33;;
10100;SDS011;5090;51.258;4.436;2023-04-15T05:46:28;12.87;;;8.77;;
10100;SDS011;5090;51.258;4.436;2023-04-15T05:48:56;11.90;;;8.63;;
10100;SDS011;5090;51.258;4.436;2023-04-15T05:51:24;17.67;;;9.60;;
10100;SDS011;5090;51.258;4.436;2023-04-15T05:53:52;14.00;;;8.63;;
10100;SDS011;5090;51.258;4.436;2023-04-15T05:56:21;13.23;;;9.37;;
10100;SDS011;5090;51.258;4.436;2023-04-15T05:58:49;16.37;;;9.73;;
10100;SDS011;5090;51.258;4.436;2023-04-15T06:01:17;15.37;;;9.93;;
10100;SDS011;5090;51.258;4.436;2023-04-15T06:03:45;13.50;;;9.60;;
10100;SDS011;5090;51.258;4.436;2023-04-15T06:06:13;18.13;;;9.97;;
10100;SDS011;5090;51.258;4.436;2023-04-15T06:08:42;15.13;;;9.83;;
10100;SDS011;5090;51.258;4.436;2023-04-15T06:11:10;13.17;;;9.00;;
10100;SDS011;5090;51.258;4.436;2023-04-15T06:13:39;20.93;;;9.70;;
10100;SDS011;5090;51.258;4.436;2023-04-15T06:16:11;14.77;;;10.03;;
10100;SDS011;5090;51.258;4.436;2023-04-15T06:18:40;15.30;;;9.53;;
10100;SDS011;5090;51.258;4.436;2023-04-15T06:21:08;13.23;;;10.50;;
10100;SDS011;5090;51.258;4.436;2023-04-15T06:23:36;12.47;;;9.40;;
10100;SDS011;5090;51.258;4.436;2023-04-15T06:26:04;15.93;;;9.97;;
10100;SDS011;5090;51.258;4.436;2023-04-15T06:28:33;14.40;;;9.10;;
10100;SDS011;5090;51.258;4.436;2023-04-15T06:31:01;14.17;;;10.10;;
10100;SDS011;5090;51.258;4.436;2023-04-15T06:33:29;13.43;;;10.03;;
10100;SDS011;5090;51.258;4.436;2023-04-15T06:35:57;14.33;;;9.83;;
10100;SDS011;5090;51.258;4.436;2023-04-15T06:38:25;12.47;;;8.40;;
10100;SDS011;5090;51.258;4.436;2023-04-15T06:40:54;13.57;;;9.70;;
10100;SDS011;5090;51.258;4.436;2023-04-15T06:43:22;14.57;;;9.47;;
10100;SDS011;5090;51.258;4.436;2023-04-15T06:45:50;14.97;;;9.37;;
10100;SDS011;5090;51.258;4.436;2023-04-15T06:48:18;12.93;;;9.83;;
10100;SDS011;5090;51.258;4.436;2023-04-15T06:50:47;12.97;;;8.93;;
10100;SDS011;5090;51.258;4.436;2023-04-15T06:53:15;12.77;;;8.87;;
10100;SDS011;5090;51.258;4.436;2023-04-15T06:55:43;13.27;;;9.07;;
10100;SDS011;5090;51.258;4.436;2023-04-15T06:58:11;11.70;;;8.10;;
10100;SDS011;5090;51.258;4.436;2023-04-15T07:00:39;12.93;;;8.43;;
10100;SDS011;5090;51.258;4.436;2023-04-15T07:03:08;11.97;;;8.17;;
10100;SDS011;5090;51.258;4.436;2023-04-15T07:05:36;13.37;;;7.83;;
10100;SDS011;5090;51.258;4.436;2023-04-15T07:08:04;13.37;;;8.20;;
10100;SDS011;5090;51.258;4.436;2023-04-15T07:10:33;9.50;;;7.87;;
10100;SDS011;5090;51.258;4.436;2023-04-15T07:13:01;8.30;;;7.50;;
10100;SDS011;5090;51.258;4.436;2023-04-15T07:15:30;10.70;;;7.27;;
10100;SDS011;5090;51.258;4.436;2023-04-15T07:17:58;13.47;;;8.23;;
10100;SDS011;5090;51.258;4.436;2023-04-15T07:20:26;9.60;;;7.77;;
10100;SDS011;5090;51.258;4.436;2023-04-15T07:22:54;12.20;;;8.33;;
10100;SDS011;5090;51.258;4.436;2023-04-15T07:25:22;10.23;;;7.70;;
10100;SDS011;5090;51.258;4.436;2023-04-15T07:27:51;11.67;;;7.67;;
10100;SDS011;5090;51.258;4.436;2023-04-15T07:30:19;13.73;;;8.30;;
10100;SDS011;5090;51.258;4.436;2023-04-15T07:32:47;10.57;;;7.50;;
10100;SDS011;5090;51.258;4.436;2023-04-15T07:35:15;12.07;;;7.60;;
10100;SDS011;5090;51.258;4.436;2023-04-15T07:37:43;9.70;;;7.20;;
10100;SDS011;5090;51.258;4.436;2023-04-15T07:40:12;9.47;;;7.13;;
10100;SDS011;5090;51.258;4.436;2023-04-15T07:42:40;8.97;;;7.30;;
10100;SDS011;5090;51.258;4.436;2023-04-15T07:45:08;11.13;;;7.17;;
10100;SDS011;5090;51.258;4.436;2023-04-15T07:47:36;9.77;;;7.57;;
10100;SDS011;5090;51.258;4.436;2023-04-15T07:50:05;10.77;;;7.00;;
10100;SDS011;5090;51.258;4.436;2023-04-15T07:52:33;10.10;;;7.13;;
10100;SDS011;5090;51.258;4.436;2023-04-15T07:55:01;11.27;;;6.87;;
10100;SDS011;5090;51.258;4.436;2023-04-15T07:57:30;10.70;;;7.43;;
10100;SDS011;5090;51.258;4.436;2023-04-15T07:59:58;10.60;;;6.87;;
10100;SDS011;5090;51.258;4.436;2023-04-15T08:02:26;9.90;;;6.60;;
10100;SDS011;5090;51.258;4.436;2023-04-15T08:04:54;8.17;;;6.90;;
10100;SDS011;5090;51.258;4.436;2023-04-15T08:07:23;8.93;;;7.57;;
10100;SDS011;5090;51.258;4.436;2023-04-15T08:09:51;8.07;;;6.93;;
10100;SDS011;5090;51.258;4.436;2023-04-15T08:12:19;9.00;;;6.35;;
10100;SDS011;5090;51.258;4.436;2023-04-15T08:14:47;6.90;;;6.00;;
10100;SDS011;5090;51.258;4.436;2023-04-15T08:17:15;9.73;;;6.20;;
10100;SDS011;5090;51.258;4.436;2023-04-15T08:19:44;8.50;;;5.90;;
10100;SDS011;5090;51.258;4.436;2023-04-15T08:22:12;7.57;;;6.10;;
10100;SDS011;5090;51.258;4.436;2023-04-15T08:24:42;8.90;;;6.77;;
10100;SDS011;5090;51.258;4.436;2023-04-15T08:27:10;7.67;;;5.67;;
10100;SDS011;5090;51.258;4.436;2023-04-15T08:29:38;7.40;;;6.00;;
10100;SDS011;5090;51.258;4.436;2023-04-15T08:32:06;7.97;;;6.27;;
10100;SDS011;5090;51.258;4.436;2023-04-15T08:34:36;7.63;;;5.97;;
10100;SDS011;5090;51.258;4.436;2023-04-15T08:37:04;10.83;;;5.80;;
10100;SDS011;5090;51.258;4.436;2023-04-15T08:39:32;8.90;;;5.70;;
10100;SDS011;5090;51.258;4.436;2023-04-15T08:42:01;9.17;;;5.50;;
10100;SDS011;5090;51.258;4.436;2023-04-15T08:44:29;8.73;;;5.67;;
10100;SDS011;5090;51.258;4.436;2023-04-15T08:46:59;6.13;;;5.30;;
10100;SDS011;5090;51.258;4.436;2023-04-15T08:49:25;6.70;;;5.25;;
10100;SDS011;5090;51.258;4.436;2023-04-15T08:51:56;8.23;;;4.97;;
10100;SDS011;5090;51.258;4.436;2023-04-15T08:54:23;6.40;;;4.70;;
10100;SDS011;5090;51.258;4.436;2023-04-15T08:56:51;7.07;;;4.73;;
10100;SDS011;5090;51.258;4.436;2023-04-15T08:59:20;6.93;;;4.77;;
10100;SDS011;5090;51.258;4.436;2023-04-15T09:01:49;5.43;;;4.30;;
10100;SDS011;5090;51.258;4.436;2023-04-15T09:04:17;5.97;;;4.67;;
10100;SDS011;5090;51.258;4.436;2023-04-15T09:06:45;6.37;;;4.00;;
10100;SDS011;5090;51.258;4.436;2023-04-15T09:09:13;7.37;;;4.20;;
10100;SDS011;5090;51.258;4.436;2023-04-15T09:11:42;6.60;;;4.40;;
10100;SDS011;5090;51.258;4.436;2023-04-15T09:14:10;5.17;;;4.67;;
10100;SDS011;5090;51.258;4.436;2023-04-15T09:19:20;6.03;;;4.33;;
10100;SDS011;5090;51.258;4.436;2023-04-15T09:21:47;6.57;;;4.50;;
10100;SDS011;5090;51.258;4.436;2023-04-15T09:24:17;5.43;;;4.87;;
10100;SDS011;5090;51.258;4.436;2023-04-15T09:26:45;5.97;;;4.20;;
10100;SDS011;5090;51.258;4.436;2023-04-15T09:29:13;4.90;;;3.67;;
10100;SDS011;5090;51.258;4.436;2023-04-15T09:31:41;4.73;;;4.00;;
10100;SDS011;5090;51.258;4.436;2023-04-15T09:34:09;5.90;;;3.93;;
10100;SDS011;5090;51.258;4.436;2023-04-15T09:39:13;6.17;;;3.97;;
10100;SDS011;5090;51.258;4.436;2023-04-15T09:41:41;5.23;;;3.20;;
10100;SDS011;5090;51.258;4.436;2023-04-15T09:46:44;6.43;;;3.93;;
10100;SDS011;5090;51.258;4.436;2023-04-15T09:49:12;5.03;;;3.50;;
10100;SDS011;5090;51.258;4.436;2023-04-15T09:51:40;6.20;;;3.90;;
10100;SDS011;5090;51.258;4.436;2023-04-15T09:54:08;5.53;;;4.00;;
10100;SDS011;5090;51.258;4.436;2023-04-15T09:56:37;6.13;;;4.57;;
10100;SDS011;5090;51.258;4.436;2023-04-15T09:59:05;5.33;;;3.93;;
10100;SDS011;5090;51.258;4.436;2023-04-15T10:01:34;7.80;;;4.50;;
10100;SDS011;5090;51.258;4.436;2023-04-15T10:04:02;5.40;;;4.33;;
10100;SDS011;5090;51.258;4.436;2023-04-15T10:06:30;5.53;;;4.07;;
10100;SDS011;5090;51.258;4.436;2023-04-15T10:08:59;5.87;;;4.00;;
10100;SDS011;5090;51.258;4.436;2023-04-15T10:11:29;4.97;;;3.40;;
10100;SDS011;5090;51.258;4.436;2023-04-15T10:13:57;5.77;;;3.67;;
10100;SDS011;5090;51.258;4.436;2023-04-15T10:16:26;4.97;;;3.43;;
10100;SDS011;5090;51.258;4.436;2023-04-15T10:18:54;4.87;;;3.17;;
10100;SDS011;5090;51.258;4.436;2023-04-15T10:21:22;4.83;;;3.50;;
10100;SDS011;5090;51.258;4.436;2023-04-15T10:23:50;7.13;;;3.27;;
10100;SDS011;5090;51.258;4.436;2023-04-15T10:26:19;6.70;;;3.90;;
10100;SDS011;5090;51.258;4.436;2023-04-15T10:28:47;5.73;;;3.90;;
10100;SDS011;5090;51.258;4.436;2023-04-15T10:31:15;5.17;;;4.17;;
10100;SDS011;5090;51.258;4.436;2023-04-15T10:33:46;5.57;;;4.10;;
10100;SDS011;5090;51.258;4.436;2023-04-15T10:36:16;4.57;;;3.20;;
10100;SDS011;5090;51.258;4.436;2023-04-15T10:38:45;5.17;;;2.77;;
10100;SDS011;5090;51.258;4.436;2023-04-15T10:41:18;3.97;;;3.00;;
10100;SDS011;5090;51.258;4.436;2023-04-15T10:43:55;5.10;;;3.80;;
10100;SDS011;5090;51.258;4.436;2023-04-15T10:46:34;5.80;;;3.77;;
10100;SDS011;5090;51.258;4.436;2023-04-15T10:49:09;5.90;;;4.07;;
10100;SDS011;5090;51.258;4.436;2023-04-15T10:51:39;6.90;;;4.10;;
10100;SDS011;5090;51.258;4.436;2023-04-15T10:54:13;6.83;;;3.50;;
10100;SDS011;5090;51.258;4.436;2023-04-15T10:56:41;8.80;;;3.50;;
10100;SDS011;5090;51.258;4.436;2023-04-15T10:59:09;8.40;;;3.47;;
10100;SDS011;5090;51.258;4.436;2023-04-15T11:04:12;7.13;;;3.13;;
10100;SDS011;5090;51.258;4.436;2023-04-15T11:06:42;4.53;;;3.23;;
10100;SDS011;5090;51.258;4.436;2023-04-15T11:09:11;5.23;;;3.60;;
10100;SDS011;5090;51.258;4.436;2023-04-15T11:57:30;3.20;;;2.90;;
10100;SDS011;5090;51.258;4.436;2023-04-15T11:59:58;5.77;;;2.83;;
10100;SDS011;5090;51.258;4.436;2023-04-15T12:02:30;3.00;;;2.33;;
10100;SDS011;5090;51.258;4.436;2023-04-15T12:05:03;4.97;;;2.50;;
10100;SDS011;5090;51.258;4.436;2023-04-15T12:07:31;4.97;;;2.10;;
10100;SDS011;5090;51.258;4.436;2023-04-15T12:09:59;2.93;;;2.10;;
10100;SDS011;5090;51.258;4.436;2023-04-15T12:12:27;3.40;;;2.13;;
10100;SDS011;5090;51.258;4.436;2023-04-15T12:14:56;3.53;;;2.27;;
10100;SDS011;5090;51.258;4.436;2023-04-15T12:17:24;4.40;;;2.20;;
10100;SDS011;5090;51.258;4.436;2023-04-15T12:19:55;3.97;;;2.30;;
10100;SDS011;5090;51.258;4.436;2023-04-15T12:22:20;4.30;;;2.40;;
10100;SDS011;5090;51.258;4.436;2023-04-15T12:24:53;4.60;;;2.50;;
10100;SDS011;5090;51.258;4.436;2023-04-15T12:27:16;4.07;;;2.57;;
10100;SDS011;5090;51.258;4.436;2023-04-15T12:29:45;4.57;;;2.47;;
10100;SDS011;5090;51.258;4.436;2023-04-15T12:32:14;3.10;;;1.70;;
10100;SDS011;5090;51.258;4.436;2023-04-15T12:34:44;3.90;;;2.00;;
10100;SDS011;5090;51.258;4.436;2023-04-15T12:37:11;3.80;;;1.90;;
10100;SDS011;5090;51.258;4.436;2023-04-15T12:39:41;7.20;;;2.83;;
10100;SDS011;5090;51.258;4.436;2023-04-15T12:42:08;2.53;;;1.70;;
10100;SDS011;5090;51.258;4.436;2023-04-15T12:44:36;5.97;;;2.60;;
10100;SDS011;5090;51.258;4.436;2023-04-15T12:47:04;4.93;;;2.10;;
10100;SDS011;5090;51.258;4.436;2023-04-15T12:49:32;3.70;;;2.17;;
10100;SDS011;5090;51.258;4.436;2023-04-15T12:52:01;5.50;;;2.17;;
10100;SDS011;5090;51.258;4.436;2023-04-15T12:54:29;4.70;;;2.13;;
10100;SDS011;5090;51.258;4.436;2023-04-15T12:56:57;2.70;;;2.23;;
10100;SDS011;5090;51.258;4.436;2023-04-15T12:59:25;3.33;;;2.57;;
10100;SDS011;5090;51.258;4.436;2023-04-15T13:01:53;3.90;;;2.63;;
10100;SDS011;5090;51.258;4.436;2023-04-15T13:04:22;4.80;;;2.80;;
10100;SDS011;5090;51.258;4.436;2023-04-15T13:06:50;3.57;;;2.27;;
10100;SDS011;5090;51.258;4.436;2023-04-15T13:09:18;3.00;;;1.83;;
10100;SDS011;5090;51.258;4.436;2023-04-15T13:11:46;2.27;;;1.50;;
10100;SDS011;5090;51.258;4.436;2023-04-15T13:14:14;2.43;;;1.10;;
10100;SDS011;5090;51.258;4.436;2023-04-15T13:16:42;1.23;;;0.80;;
10100;SDS011;5090;51.258;4.436;2023-04-15T13:19:11;1.07;;;0.90;;
10100;SDS011;5090;51.258;4.436;2023-04-15T13:21:39;2.70;;;0.87;;
10100;SDS011;5090;51.258;4.436;2023-04-15T13:24:07;4.80;;;0.80;;
10100;SDS011;5090;51.258;4.436;2023-04-15T13:26:35;2.80;;;1.00;;
10100;SDS011;5090;51.258;4.436;2023-04-15T13:29:03;2.40;;;1.17;;
10100;SDS011;5090;51.258;4.436;2023-04-15T13:31:31;3.20;;;0.90;;
10100;SDS011;5090;51.258;4.436;2023-04-15T13:34:00;5.30;;;1.33;;
10100;SDS011;5090;51.258;4.436;2023-04-15T13:36:28;3.00;;;1.20;;
10100;SDS011;5090;51.258;4.436;2023-04-15T13:38:56;3.03;;;1.37;;
10100;SDS011;5090;51.258;4.436;2023-04-15T13:41:24;1.60;;;1.10;;
10100;SDS011;5090;51.258;4.436;2023-04-15T13:43:52;3.40;;;1.87;;
10100;SDS011;5090;51.258;4.436;2023-04-15T13:46:21;3.27;;;1.77;;
10100;SDS011;5090;51.258;4.436;2023-04-15T13:48:49;2.73;;;1.50;;
10100;SDS011;5090;51.258;4.436;2023-04-15T13:51:17;2.50;;;1.73;;
10100;SDS011;5090;51.258;4.436;2023-04-15T13:53:45;3.23;;;1.77;;
10100;SDS011;5090;51.258;4.436;2023-04-15T13:56:13;4.73;;;2.00;;
10100;SDS011;5090;51.258;4.436;2023-04-15T13:58:42;6.27;;;2.00;;
10100;SDS011;5090;51.258;4.436;2023-04-15T14:01:10;3.17;;;2.27;;
10100;SDS011;5090;51.258;4.436;2023-04-15T14:03:38;2.90;;;2.00;;
10100;SDS011;5090;51.258;4.436;2023-04-15T14:06:06;3.00;;;2.20;;
10100;SDS011;5090;51.258;4.436;2023-04-15T14:08:34;3.77;;;2.30;;
10100;SDS011;5090;51.258;4.436;2023-04-15T14:11:02;2.43;;;2.10;;
10100;SDS011;5090;51.258;4.436;2023-04-15T14:13:31;4.40;;;2.17;;
10100;SDS011;5090;51.258;4.436;2023-04-15T14:15:59;2.70;;;2.00;;
10100;SDS011;5090;51.258;4.436;2023-04-15T14:18:27;2.80;;;2.00;;
10100;SDS011;5090;51.258;4.436;2023-04-15T14:20:55;2.43;;;2.00;;
10100;SDS011;5090;51.258;4.436;2023-04-15T14:23:23;2.53;;;2.00;;
10100;SDS011;5090;51.258;4.436;2023-04-15T14:25:52;3.50;;;2.17;;
10100;SDS011;5090;51.258;4.436;2023-04-15T14:28:20;5.27;;;1.80;;
10100;SDS011;5090;51.258;4.436;2023-04-15T14:30:48;2.10;;;1.33;;
10100;SDS011;5090;51.258;4.436;2023-04-15T14:33:16;2.33;;;1.40;;
10100;SDS011;5090;51.258;4.436;2023-04-15T14:35:45;1.70;;;1.07;;
10100;SDS011;5090;51.258;4.436;2023-04-15T14:38:13;2.70;;;2.30;;
10100;SDS011;5090;51.258;4.436;2023-04-15T14:40:41;2.50;;;1.80;;
10100;SDS011;5090;51.258;4.436;2023-04-15T14:43:10;2.90;;;1.73;;
10100;SDS011;5090;51.258;4.436;2023-04-15T14:45:38;5.40;;;1.90;;
10100;SDS011;5090;51.258;4.436;2023-04-15T14:48:07;2.20;;;1.50;;
10100;SDS011;5090;51.258;4.436;2023-04-15T14:50:35;2.80;;;2.10;;
10100;SDS011;5090;51.258;4.436;2023-04-15T14:53:03;5.77;;;2.00;;
10100;SDS011;5090;51.258;4.436;2023-04-15T14:55:32;3.00;;;1.80;;
10100;SDS011;5090;51.258;4.436;2023-04-15T14:58:00;2.63;;;1.53;;
10100;SDS011;5090;51.258;4.436;2023-04-15T15:00:29;3.40;;;1.87;;
10100;SDS011;5090;51.258;4.436;2023-04-15T15:02:57;4.03;;;1.83;;
10100;SDS011;5090;51.258;4.436;2023-04-15T15:05:26;2.93;;;1.73;;
10100;SDS011;5090;51.258;4.436;2023-04-15T15:07:54;6.97;;;1.53;;
10100;SDS011;5090;51.258;4.436;2023-04-15T15:10:26;2.97;;;1.33;;
10100;SDS011;5090;51.258;4.436;2023-04-15T15:12:55;2.83;;;1.40;;
10100;SDS011;5090;51.258;4.436;2023-04-15T15:15:23;1.50;;;1.23;;
10100;SDS011;5090;51.258;4.436;2023-04-15T15:17:52;1.60;;;1.17;;
10100;SDS011;5090;51.258;4.436;2023-04-15T15:20:20;2.27;;;1.23;;
10100;SDS011;5090;51.258;4.436;2023-04-15T15:22:48;2.63;;;1.67;;
10100;SDS011;5090;51.258;4.436;2023-04-15T15:25:17;2.03;;;1.10;;
10100;SDS011;5090;51.258;4.436;2023-04-15T15:27:46;3.20;;;1.50;;
10100;SDS011;5090;51.258;4.436;2023-04-15T15:30:14;3.00;;;1.17;;
10100;SDS011;5090;51.258;4.436;2023-04-15T15:32:43;4.03;;;1.40;;
10100;SDS011;5090;51.258;4.436;2023-04-15T15:35:11;3.00;;;1.40;;
10100;SDS011;5090;51.258;4.436;2023-04-15T15:37:40;4.03;;;1.70;;
10100;SDS011;5090;51.258;4.436;2023-04-15T15:40:08;2.90;;;1.30;;
10100;SDS011;5090;51.258;4.436;2023-04-15T15:42:36;6.40;;;1.10;;
10100;SDS011;5090;51.258;4.436;2023-04-15T15:45:04;3.30;;;1.30;;
10100;SDS011;5090;51.258;4.436;2023-04-15T15:47:33;3.00;;;1.20;;
10100;SDS011;5090;51.258;4.436;2023-04-15T15:50:01;2.67;;;1.47;;
10100;SDS011;5090;51.258;4.436;2023-04-15T15:52:29;2.27;;;1.03;;
10100;SDS011;5090;51.258;4.436;2023-04-15T15:54:58;2.67;;;1.63;;
10100;SDS011;5090;51.258;4.436;2023-04-15T15:57:26;4.80;;;1.40;;
10100;SDS011;5090;51.258;4.436;2023-04-15T15:59:54;4.07;;;1.90;;
10100;SDS011;5090;51.258;4.436;2023-04-15T16:02:22;3.73;;;1.60;;